Time;durP1;ratioP1;P1;durP2;ratioP2;P2;SDS_P1;SDS_P2;PMS_P1;PMS_P2;Temp;Humidity;BMP_temperature;BMP_pressure;BME280_temperature;BME280_humidity;BME280_pressure;Samples;Min_cycle;Max_cycle;Signal;HPM_P1;HPM_P2
2023/11/28 00:01:45;;;;;;;3.20;0.20;;;4.70;99.90;;;;;;5049430;28;20393;-67
2023/11/28 00:04:10;;;;;;;3.30;0.20;;;4.80;99.90;;;;;;5050209;28;20409;-67
2023/11/28 00:06:35;;;;;;;3.50;0.50;;;4.80;99.90;;;;;;5046635;28;20436;-67
2023/11/28 00:09:02;;;;;;;3.20;0.20;;;4.70;99.90;;;;;;5035634;28;20459;-67
2023/11/28 00:11:28;;;;;;;3.30;0.20;;;4.60;99.90;;;;;;5049553;28;20435;-67
2023/11/28 00:13:53;;;;;;;3.30;0.20;;;4.70;99.90;;;;;;5049169;28;20431;-67
2023/11/28 00:16:19;;;;;;;3.20;0.20;;;4.70;99.90;;;;;;5048613;28;20393;-67
2023/11/28 00:18:45;;;;;;;3.20;0.30;;;4.70;99.90;;;;;;5048071;28;20746;-67
2023/11/28 00:21:11;;;;;;;3.40;0.38;;;4.70;99.90;;;;;;5049583;28;20475;-67
2023/11/28 00:23:38;;;;;;;3.20;0.20;;;4.70;99.90;;;;;;5048906;28;20743;-67
2023/11/28 00:26:04;;;;;;;3.30;0.30;;;4.80;99.90;;;;;;5048833;28;20463;-67
2023/11/28 00:28:30;;;;;;;3.20;0.20;;;4.90;99.90;;;;;;5048607;28;20401;-67
2023/11/28 00:30:56;;;;;;;3.20;0.20;;;4.90;99.90;;;;;;5047552;28;20527;-67
2023/11/28 00:33:21;;;;;;;3.20;0.20;;;4.90;99.90;;;;;;5048896;28;20505;-67
2023/11/28 00:35:47;;;;;;;3.40;0.50;;;4.90;99.90;;;;;;5048464;28;20774;-67
2023/11/28 00:38:13;;;;;;;3.30;0.30;;;4.80;99.90;;;;;;5049665;28;20594;-67
2023/11/28 00:40:46;;;;;;;3.28;0.22;;;4.90;99.90;;;;;;5048941;28;20776;-67
2023/11/28 00:43:11;;;;;;;3.20;0.20;;;4.90;99.90;;;;;;5048728;28;20389;-67
2023/11/28 00:45:38;;;;;;;3.20;0.20;;;4.90;99.90;;;;;;5048644;28;20386;-67
2023/11/28 00:48:05;;;;;;;3.20;0.20;;;5.00;99.90;;;;;;5047690;28;20672;-67
2023/11/28 00:50:31;;;;;;;3.40;0.30;;;4.90;99.90;;;;;;5048922;28;20403;-67
2023/11/28 00:52:56;;;;;;;3.30;0.30;;;4.90;99.90;;;;;;5048553;28;20895;-67
2023/11/28 00:55:23;;;;;;;3.20;0.20;;;4.90;99.90;;;;;;5048714;28;20393;-67
2023/11/28 00:57:49;;;;;;;3.30;0.20;;;4.70;99.90;;;;;;5048530;28;20393;-67
2023/11/28 01:00:15;;;;;;;3.20;0.20;;;4.70;99.90;;;;;;5047704;28;20467;-67
2023/11/28 01:02:41;;;;;;;3.20;0.20;;;4.70;99.90;;;;;;5047987;28;20867;-67
2023/11/28 01:05:09;;;;;;;3.20;0.20;;;4.80;99.90;;;;;;5048781;28;20404;-66
2023/11/28 01:07:36;;;;;;;3.20;0.20;;;4.90;99.90;;;;;;5050046;28;20405;-66
2023/11/28 01:10:01;;;;;;;3.30;0.30;;;5.00;99.90;;;;;;5048798;28;20712;-66
2023/11/28 01:12:27;;;;;;;3.20;0.20;;;4.90;99.90;;;;;;5048407;28;20484;-66
2023/11/28 01:14:52;;;;;;;3.10;0.20;;;4.80;99.90;;;;;;5047220;28;20480;-66
2023/11/28 01:17:18;;;;;;;3.20;0.20;;;4.80;99.90;;;;;;5048490;28;20401;-66
2023/11/28 01:19:44;;;;;;;3.20;0.30;;;4.80;99.90;;;;;;5048943;28;20458;-66
2023/11/28 01:22:11;;;;;;;3.20;0.20;;;4.90;99.90;;;;;;5048782;28;20401;-67
2023/11/28 01:24:37;;;;;;;3.20;0.20;;;5.00;99.90;;;;;;5048738;28;20918;-67
2023/11/28 01:27:04;;;;;;;3.20;0.20;;;5.10;99.90;;;;;;5048149;28;20747;-67
2023/11/28 01:29:29;;;;;;;4.70;0.50;;;5.00;99.90;;;;;;5047984;28;20422;-67
2023/11/28 01:31:55;;;;;;;3.30;0.20;;;5.00;99.90;;;;;;5047719;28;20390;-67
2023/11/28 01:34:20;;;;;;;3.20;0.20;;;5.00;99.90;;;;;;5047918;28;20425;-67
2023/11/28 01:36:46;;;;;;;3.20;0.20;;;5.00;99.90;;;;;;5048137;28;20417;-67
2023/11/28 01:39:12;;;;;;;3.20;0.20;;;5.00;99.90;;;;;;5049073;28;20390;-67
2023/11/28 01:41:39;;;;;;;3.20;0.20;;;5.10;99.90;;;;;;5046450;28;20407;-67
2023/11/28 01:44:05;;;;;;;3.20;0.30;;;5.20;99.90;;;;;;5048231;28;20393;-67
2023/11/28 01:46:35;;;;;;;3.20;0.20;;;5.20;49.70;;;;;;5048479;28;20385;-67
2023/11/28 01:49:02;;;;;;;3.30;0.25;;;5.30;30.70;;;;;;5048327;28;20878;-67
2023/11/28 01:51:29;;;;;;;3.60;0.28;;;5.40;5.80;;;;;;5047411;28;20968;-67
2023/11/28 01:53:57;;;;;;;3.20;0.20;;;5.30;1.00;;;;;;5048870;28;20433;-67
2023/11/28 01:56:25;;;;;;;3.40;0.20;;;5.30;1.00;;;;;;5064701;28;20468;-67
2023/11/28 01:58:54;;;;;;;3.40;0.30;;;5.40;1.00;;;;;;5066087;28;20399;-67
2023/11/28 02:01:21;;;;;;;3.30;0.20;;;5.40;1.00;;;;;;5052466;28;20408;-67
2023/11/28 02:03:48;;;;;;;3.30;0.30;;;5.40;1.00;;;;;;5052008;28;20439;-67
2023/11/28 02:06:14;;;;;;;3.40;0.20;;;5.50;1.00;;;;;;5052340;28;20397;-66
2023/11/28 02:08:40;;;;;;;3.30;0.20;;;5.60;1.00;;;;;;5051770;28;20409;-67
2023/11/28 02:11:06;;;;;;;3.50;0.30;;;5.60;1.00;;;;;;5051145;28;20390;-67
2023/11/28 02:13:32;;;;;;;3.30;0.20;;;5.60;1.00;;;;;;5051258;28;20456;-67
2023/11/28 02:15:58;;;;;;;3.80;0.20;;;5.60;1.00;;;;;;5051454;28;20389;-67
2023/11/28 02:18:24;;;;;;;3.30;0.20;;;5.60;1.00;;;;;;5051103;28;20404;-67
2023/11/28 02:20:50;;;;;;;3.30;0.20;;;5.60;1.00;;;;;;5051310;28;20397;-67
2023/11/28 02:23:16;;;;;;;3.20;0.20;;;5.60;1.00;;;;;;5051025;28;20459;-67
2023/11/28 02:25:50;;;;;;;3.40;0.40;;;5.50;1.00;;;;;;5051523;28;20447;-67
2023/11/28 02:28:20;;;;;;;3.30;0.20;;;5.50;29.70;;;;;;5050890;28;20450;-67
2023/11/28 02:30:47;;;;;;;3.30;0.20;;;5.50;14.70;;;;;;5050916;28;20381;-66
2023/11/28 02:33:12;;;;;;;3.30;0.20;;;5.40;21.10;;;;;;5050158;28;20422;-66
2023/11/28 02:35:38;;;;;;;3.30;0.20;;;5.50;99.90;;;;;;5050598;28;20413;-66
2023/11/28 02:38:03;;;;;;;3.30;0.20;;;5.50;85.30;;;;;;5049165;28;20427;-67
2023/11/28 02:40:29;;;;;;;3.30;0.20;;;5.50;99.90;;;;;;5051351;28;20386;-67
2023/11/28 02:42:54;;;;;;;3.30;0.20;;;5.60;98.40;;;;;;5050962;28;20505;-67
2023/11/28 02:45:20;;;;;;;3.50;0.23;;;5.70;99.90;;;;;;5035421;28;20398;-67
2023/11/28 02:47:45;;;;;;;3.40;0.30;;;5.70;77.20;;;;;;5034486;28;20383;-66
2023/11/28 02:50:11;;;;;;;3.30;0.20;;;5.60;99.90;;;;;;5050378;28;20401;-66
2023/11/28 02:52:40;;;;;;;3.30;0.22;;;5.60;52.70;;;;;;5032503;28;20968;-66
2023/11/28 02:55:06;;;;;;;3.23;0.20;;;5.60;99.90;;;;;;5031318;28;20387;-66
2023/11/28 02:57:32;;;;;;;3.40;0.30;;;5.60;99.90;;;;;;5031245;28;20390;-67
2023/11/28 02:59:58;;;;;;;3.30;0.20;;;5.70;99.90;;;;;;5029437;28;20465;-66
2023/11/28 03:02:23;;;;;;;4.20;0.30;;;5.70;99.90;;;;;;5035894;28;20381;-66
2023/11/28 03:04:49;;;;;;;3.30;0.20;;;5.70;99.90;;;;;;5050506;28;20431;-66
2023/11/28 03:07:15;;;;;;;3.50;0.30;;;5.70;99.90;;;;;;5050619;28;20465;-66
2023/11/28 03:09:41;;;;;;;3.40;0.30;;;5.60;99.90;;;;;;5050793;28;20397;-66
2023/11/28 03:12:08;;;;;;;3.30;0.20;;;5.60;99.90;;;;;;5050755;28;20393;-66
2023/11/28 03:14:33;;;;;;;3.30;0.20;;;5.70;99.90;;;;;;5050378;28;20451;-66
2023/11/28 03:16:59;;;;;;;3.30;0.20;;;5.70;99.90;;;;;;5049770;28;20389;-66
2023/11/28 03:19:25;;;;;;;3.90;0.40;;;5.60;99.90;;;;;;5050074;28;20802;-66
2023/11/28 03:21:50;;;;;;;3.50;0.50;;;5.60;99.90;;;;;;5050146;28;20386;-66
2023/11/28 03:24:16;;;;;;;3.30;0.20;;;5.60;99.90;;;;;;5050026;28;20401;-67
2023/11/28 03:26:42;;;;;;;3.30;0.20;;;5.70;99.90;;;;;;5050698;28;20416;-67
2023/11/28 03:29:08;;;;;;;3.30;0.30;;;5.60;99.90;;;;;;5048875;28;20410;-67
2023/11/28 03:31:33;;;;;;;3.30;0.30;;;5.60;99.90;;;;;;5042292;28;20442;-67
2023/11/28 03:33:59;;;;;;;3.20;0.30;;;5.60;99.90;;;;;;5042165;28;20421;-67
2023/11/28 03:36:24;;;;;;;3.30;0.20;;;5.70;99.90;;;;;;5049282;28;20430;-67
2023/11/28 03:38:50;;;;;;;3.28;0.20;;;5.80;99.90;;;;;;5049877;28;20472;-67
2023/11/28 03:41:16;;;;;;;3.60;0.30;;;5.60;99.90;;;;;;5049793;28;20394;-67
2023/11/28 03:43:41;;;;;;;3.20;0.20;;;5.60;99.90;;;;;;5050118;28;20472;-66
2023/11/28 03:46:07;;;;;;;3.50;0.40;;;5.60;99.90;;;;;;5049827;28;20401;-66
2023/11/28 03:48:32;;;;;;;3.20;0.20;;;5.70;99.90;;;;;;5049566;28;20488;-66
2023/11/28 03:50:58;;;;;;;3.60;0.40;;;5.80;99.90;;;;;;5049770;28;20732;-66
2023/11/28 03:53:23;;;;;;;3.40;0.20;;;5.90;99.90;;;;;;5049426;28;20498;-67
2023/11/28 03:55:49;;;;;;;3.30;0.20;;;5.90;99.90;;;;;;5049463;28;20388;-66
2023/11/28 03:58:14;;;;;;;3.23;0.20;;;5.90;99.90;;;;;;5049157;28;20949;-66
2023/11/28 04:00:41;;;;;;;3.30;0.20;;;5.90;99.90;;;;;;5052259;28;20464;-67
2023/11/28 04:03:07;;;;;;;3.30;0.20;;;5.90;92.00;;;;;;5048887;28;20502;-66
2023/11/28 04:05:32;;;;;;;3.42;0.30;;;5.90;99.90;;;;;;5049036;28;20942;-66
2023/11/28 04:07:58;;;;;;;3.50;0.30;;;6.00;97.20;;;;;;5048333;28;20508;-66
2023/11/28 04:10:23;;;;;;;3.67;0.25;;;6.10;47.90;;;;;;5048823;28;20402;-66
2023/11/28 04:12:49;;;;;;;3.30;0.20;;;6.00;39.90;;;;;;5048575;28;20934;-66
2023/11/28 04:15:15;;;;;;;3.30;0.30;;;6.00;26.70;;;;;;5048711;28;20751;-66
2023/11/28 04:17:40;;;;;;;3.33;0.27;;;5.90;40.40;;;;;;5048773;28;20386;-67
2023/11/28 04:20:06;;;;;;;3.40;0.30;;;5.90;20.70;;;;;;5047342;28;20402;-67
2023/11/28 04:22:32;;;;;;;3.30;0.20;;;5.90;15.10;;;;;;5048079;28;20454;-67
2023/11/28 04:24:57;;;;;;;3.83;0.37;;;5.90;39.90;;;;;;5048744;28;20393;-67
2023/11/28 04:27:23;;;;;;;3.30;0.30;;;5.80;58.80;;;;;;5048355;28;20400;-67
2023/11/28 04:29:48;;;;;;;3.30;0.20;;;5.80;74.00;;;;;;5048681;28;20394;-67
2023/11/28 04:32:14;;;;;;;3.75;0.25;;;5.80;99.90;;;;;;5048809;28;20910;-66
2023/11/28 04:34:40;;;;;;;3.70;0.50;;;5.70;96.50;;;;;;5049607;28;20460;-66
2023/11/28 04:37:06;;;;;;;3.20;0.20;;;5.50;99.90;;;;;;5048965;28;20437;-67
2023/11/28 04:39:31;;;;;;;3.40;0.20;;;5.50;99.90;;;;;;5049046;28;20389;-67
2023/11/28 04:41:57;;;;;;;3.20;0.30;;;5.50;99.90;;;;;;5047791;28;20397;-66
2023/11/28 04:44:22;;;;;;;3.67;0.38;;;5.40;1.00;;;;;;5050133;28;20397;-66
2023/11/28 04:46:49;;;;;;;3.20;0.20;;;5.30;1.00;;;;;;5048597;28;20420;-66
2023/11/28 04:49:15;;;;;;;3.30;0.30;;;5.30;1.00;;;;;;5048585;28;20389;-66
2023/11/28 04:51:41;;;;;;;3.40;0.30;;;5.20;1.00;;;;;;5049141;28;20390;-66
2023/11/28 04:54:07;;;;;;;3.10;0.20;;;5.10;32.20;;;;;;5048472;28;20907;-66
2023/11/28 04:56:34;;;;;;;3.10;0.30;;;5.10;99.90;;;;;;5048165;28;20448;-66
2023/11/28 04:58:59;;;;;;;3.10;0.20;;;5.20;99.90;;;;;;5048433;28;20425;-66
2023/11/28 05:01:25;;;;;;;3.47;0.22;;;5.20;99.90;;;;;;5048335;28;20420;-66
2023/11/28 05:03:51;;;;;;;3.20;0.30;;;5.30;99.90;;;;;;5035661;28;20500;-67
2023/11/28 05:06:17;;;;;;;3.60;0.50;;;5.40;99.90;;;;;;5046632;28;20400;-66
2023/11/28 05:08:43;;;;;;;3.20;0.30;;;5.60;99.90;;;;;;5043317;28;20855;-66
2023/11/28 05:11:08;;;;;;;3.50;0.40;;;5.60;34.00;;;;;;5033306;28;20406;-66
2023/11/28 05:13:37;;;;;;;3.50;0.50;;;5.60;28.90;;;;;;5043269;28;20483;-66
2023/11/28 05:16:03;;;;;;;3.95;0.63;;;5.60;1.00;;;;;;5057541;28;20443;-66
2023/11/28 05:18:28;;;;;;;3.80;0.90;;;5.60;21.80;;;;;;5051911;28;20415;-66
2023/11/28 05:20:54;;;;;;;5.60;0.90;;;5.70;18.70;;;;;;5045039;28;20543;-66
2023/11/28 05:23:20;;;;;;;4.50;0.90;;;5.70;1.00;;;;;;5047006;28;20413;-66
2023/11/28 05:25:45;;;;;;;4.10;0.70;;;5.60;1.00;;;;;;5045187;28;20851;-67
2023/11/28 05:28:11;;;;;;;3.73;0.73;;;5.70;1.00;;;;;;5038552;28;20411;-66
2023/11/28 05:30:36;;;;;;;3.60;0.90;;;5.60;1.00;;;;;;5030799;28;20403;-67
2023/11/28 05:33:02;;;;;;;4.50;1.30;;;5.60;24.40;;;;;;5033336;28;20931;-66
2023/11/28 05:35:28;;;;;;;3.50;0.80;;;5.70;3.70;;;;;;5032458;28;20426;-67
2023/11/28 05:37:54;;;;;;;4.53;0.65;;;5.70;1.00;;;;;;5032613;28;20391;-66
2023/11/28 05:40:21;;;;;;;3.60;0.73;;;5.60;1.00;;;;;;5051561;28;20945;-67
2023/11/28 05:42:47;;;;;;;4.70;1.38;;;5.50;1.00;;;;;;5033613;28;20907;-67
2023/11/28 05:45:12;;;;;;;3.50;0.70;;;5.50;1.00;;;;;;5036954;28;20417;-67
2023/11/28 05:47:38;;;;;;;3.57;0.60;;;5.40;1.00;;;;;;5045945;28;20959;-68
2023/11/28 05:50:04;;;;;;;3.88;1.05;;;5.40;1.00;;;;;;5041041;28;20413;-64
2023/11/28 05:52:32;;;;;;;4.60;1.00;;;5.50;1.00;;;;;;5048017;28;20408;-66
2023/11/28 05:54:57;;;;;;;7.72;1.30;;;5.40;1.00;;;;;;5045805;28;20419;-66
2023/11/28 05:57:23;;;;;;;3.77;0.70;;;5.30;1.00;;;;;;5051167;28;20385;-66
2023/11/28 05:59:50;;;;;;;3.80;0.43;;;5.20;1.00;;;;;;5051192;28;20400;-65
2023/11/28 06:02:16;;;;;;;3.40;0.50;;;5.10;1.00;;;;;;5051972;28;20388;-66
2023/11/28 06:04:41;;;;;;;3.30;0.50;;;5.00;1.00;;;;;;5052021;28;20393;-66
2023/11/28 06:07:07;;;;;;;3.43;0.50;;;5.00;1.00;;;;;;5051749;28;20401;-66
2023/11/28 06:09:32;;;;;;;3.90;0.60;;;4.90;1.00;;;;;;5052215;28;20385;-65
2023/11/28 06:11:58;;;;;;;3.10;0.30;;;4.70;1.00;;;;;;5050917;28;20414;-66
2023/11/28 06:14:23;;;;;;;3.78;0.90;;;4.70;1.00;;;;;;5049825;28;20569;-66
2023/11/28 06:16:49;;;;;;;3.43;0.63;;;4.60;51.40;;;;;;5048977;28;20487;-66
2023/11/28 06:19:15;;;;;;;3.40;0.50;;;4.60;1.00;;;;;;5051232;28;20400;-72
2023/11/28 06:21:41;;;;;;;5.20;0.40;;;4.50;1.00;;;;;;5050204;28;20408;-72
2023/11/28 06:24:06;;;;;;;3.20;0.30;;;4.40;1.00;;;;;;5033535;28;20444;-68
2023/11/28 06:26:33;;;;;;;3.80;0.67;;;4.20;1.00;;;;;;5051840;28;20421;-71
2023/11/28 06:28:59;;;;;;;3.30;0.40;;;4.10;1.00;;;;;;5051334;28;20401;-66
2023/11/28 06:31:24;;;;;;;3.70;0.40;;;4.10;1.00;;;;;;5051381;28;20404;-65
2023/11/28 06:33:50;;;;;;;3.70;0.50;;;4.10;1.00;;;;;;5051625;28;20425;-69
2023/11/28 06:36:15;;;;;;;3.10;0.23;;;4.10;1.00;;;;;;5050361;28;20420;-66
2023/11/28 06:38:41;;;;;;;3.20;0.40;;;4.00;1.00;;;;;;5051040;28;20773;-67
2023/11/28 06:41:07;;;;;;;3.33;0.50;;;4.00;1.00;;;;;;5041456;28;20818;-66
2023/11/28 06:43:33;;;;;;;3.40;0.60;;;3.90;99.90;;;;;;5052061;28;20420;-66
2023/11/28 06:45:59;;;;;;;3.30;0.30;;;3.80;1.00;;;;;;5051331;28;20868;-66
2023/11/28 06:48:25;;;;;;;3.30;0.43;;;3.80;1.00;;;;;;5049467;28;20454;-66
2023/11/28 06:50:51;;;;;;;3.63;0.47;;;3.70;1.00;;;;;;5048558;28;20393;-66
2023/11/28 06:53:17;;;;;;;3.20;0.32;;;3.60;1.00;;;;;;5049649;28;20510;-66
2023/11/28 06:55:42;;;;;;;3.63;0.50;;;3.50;1.00;;;;;;5049097;28;20425;-66
2023/11/28 06:58:08;;;;;;;3.42;0.52;;;3.60;1.00;;;;;;5050997;28;20386;-66
2023/11/28 07:00:33;;;;;;;4.07;0.70;;;3.40;1.00;;;;;;5050994;28;20400;-66
2023/11/28 07:02:59;;;;;;;3.75;0.50;;;3.30;1.00;;;;;;5051431;28;20381;-66
2023/11/28 07:05:24;;;;;;;3.63;0.50;;;3.30;1.00;;;;;;5041325;28;20413;-66
2023/11/28 07:07:50;;;;;;;3.40;0.50;;;3.30;1.00;;;;;;5035675;28;20398;-66
2023/11/28 07:10:15;;;;;;;3.50;0.40;;;3.20;1.00;;;;;;5030828;28;20391;-66
2023/11/28 07:12:41;;;;;;;3.58;0.60;;;3.10;1.00;;;;;;5031155;28;20960;-66
2023/11/28 07:15:07;;;;;;;3.53;0.50;;;2.90;1.00;;;;;;5033408;28;20407;-66
2023/11/28 07:17:33;;;;;;;3.70;0.50;;;3.00;1.00;;;;;;5033948;28;20403;-66
2023/11/28 07:19:59;;;;;;;4.60;1.00;;;3.00;1.00;;;;;;5030539;28;20468;-66
2023/11/28 07:22:25;;;;;;;3.70;0.50;;;3.10;1.00;;;;;;5030499;28;20382;-66
2023/11/28 07:24:51;;;;;;;3.50;0.57;;;3.10;1.00;;;;;;5030716;28;20403;-66
2023/11/28 07:27:17;;;;;;;3.30;0.60;;;3.00;1.00;;;;;;5029249;28;20769;-66
2023/11/28 07:29:42;;;;;;;3.20;0.30;;;2.90;1.00;;;;;;5031213;28;20885;-66
2023/11/28 07:32:08;;;;;;;3.20;0.40;;;2.90;1.00;;;;;;5030986;28;20456;-66
2023/11/28 07:34:38;;;;;;;3.83;0.63;;;2.90;1.00;;;;;;5030487;28;20419;-66
2023/11/28 07:37:03;;;;;;;3.40;0.60;;;2.80;1.00;;;;;;5030843;28;20565;-66
2023/11/28 07:39:29;;;;;;;3.70;0.73;;;2.80;1.00;;;;;;5030970;28;20924;-66
2023/11/28 07:41:54;;;;;;;3.65;0.88;;;2.80;1.00;;;;;;5029918;28;20749;-66
2023/11/28 07:44:20;;;;;;;3.40;0.60;;;2.80;1.00;;;;;;5030760;28;20722;-66
2023/11/28 07:46:46;;;;;;;3.60;0.80;;;2.80;1.00;;;;;;5030758;28;20395;-66
2023/11/28 07:49:12;;;;;;;5.50;0.85;;;2.90;1.00;;;;;;5030591;28;20438;-66
2023/11/28 07:51:37;;;;;;;4.00;0.90;;;2.90;1.00;;;;;;5031154;28;20399;-66
2023/11/28 07:54:03;;;;;;;3.70;1.00;;;2.90;1.00;;;;;;5030488;28;20438;-66
2023/11/28 07:56:29;;;;;;;4.07;0.83;;;2.90;1.00;;;;;;5029857;28;20474;-66
2023/11/28 07:58:55;;;;;;;4.00;0.90;;;3.00;1.00;;;;;;5030027;28;20395;-66
2023/11/28 08:01:21;;;;;;;3.50;0.65;;;3.00;1.00;;;;;;5030083;28;20862;-66
2023/11/28 08:03:46;;;;;;;3.42;0.52;;;2.90;99.90;;;;;;5029802;28;20391;-66
2023/11/28 08:06:13;;;;;;;4.30;1.20;;;2.80;1.00;;;;;;5031531;28;20582;-66
2023/11/28 08:08:38;;;;;;;3.90;0.63;;;2.70;1.00;;;;;;5030421;28;20391;-66
2023/11/28 08:11:04;;;;;;;4.07;1.00;;;2.70;1.00;;;;;;5030053;28;20558;-66
2023/11/28 08:13:31;;;;;;;4.25;1.20;;;2.70;1.00;;;;;;5030680;28;20937;-66
2023/11/28 08:15:58;;;;;;;4.22;1.45;;;2.70;1.00;;;;;;5029015;28;20886;-66
2023/11/28 08:18:25;;;;;;;4.22;1.20;;;2.80;1.00;;;;;;5029523;28;20446;-66
2023/11/28 08:20:50;;;;;;;3.92;0.90;;;2.80;1.00;;;;;;5029096;28;20402;-66
2023/11/28 08:23:17;;;;;;;4.37;1.30;;;2.70;1.00;;;;;;5029883;28;20694;-66
2023/11/28 08:25:42;;;;;;;3.90;0.90;;;2.70;99.90;;;;;;5029928;28;20507;-66
2023/11/28 08:28:08;;;;;;;4.33;1.10;;;2.60;1.00;;;;;;5029699;28;20394;-66
2023/11/28 08:30:33;;;;;;;4.13;1.20;;;2.50;1.00;;;;;;5029998;28;20453;-66
2023/11/28 08:32:59;;;;;;;3.90;0.90;;;2.50;1.00;;;;;;5029349;28;20417;-67
2023/11/28 08:35:24;;;;;;;3.70;0.70;;;2.50;1.00;;;;;;5029624;28;20761;-66
2023/11/28 08:37:50;;;;;;;3.40;0.80;;;2.40;1.00;;;;;;5029568;28;20840;-66
2023/11/28 08:40:15;;;;;;;3.88;1.23;;;2.50;1.00;;;;;;5029930;28;20391;-66
2023/11/28 08:42:41;;;;;;;4.30;0.80;;;2.50;1.00;;;;;;5030135;28;20897;-66
2023/11/28 08:45:08;;;;;;;3.87;0.80;;;2.60;1.00;;;;;;5027797;28;20988;-66
2023/11/28 08:47:34;;;;;;;3.90;0.80;;;2.60;1.00;;;;;;5027908;28;20466;-66
2023/11/28 08:50:01;;;;;;;4.80;0.70;;;2.70;1.00;;;;;;5029688;28;20540;-66
2023/11/28 08:52:29;;;;;;;3.60;0.80;;;2.60;1.00;;;;;;5029240;28;20410;-66
2023/11/28 08:54:56;;;;;;;3.80;0.80;;;2.60;1.00;;;;;;5030408;28;20426;-66
2023/11/28 08:57:22;;;;;;;3.67;0.80;;;2.40;1.00;;;;;;5029646;28;20391;-66
2023/11/28 08:59:48;;;;;;;4.00;0.80;;;2.50;1.00;;;;;;5029635;28;20543;-66
2023/11/28 09:02:14;;;;;;;4.30;1.07;;;2.50;1.00;;;;;;5029771;28;20433;-66
2023/11/28 09:04:39;;;;;;;3.42;0.50;;;2.60;1.00;;;;;;5030612;28;20395;-66
2023/11/28 09:07:05;;;;;;;3.73;0.80;;;2.60;1.00;;;;;;5036831;28;20379;-65
2023/11/28 09:09:30;;;;;;;5.32;1.30;;;2.60;1.00;;;;;;5033541;28;20450;-66
2023/11/28 09:11:56;;;;;;;4.33;0.90;;;2.60;1.00;;;;;;5033824;28;20411;-65
2023/11/28 09:14:21;;;;;;;3.40;0.70;;;2.60;1.00;;;;;;5034550;28;20773;-66
2023/11/28 09:16:47;;;;;;;3.40;0.60;;;2.60;1.00;;;;;;5050103;28;20389;-66
2023/11/28 09:19:14;;;;;;;3.63;0.67;;;2.40;1.00;;;;;;5054174;28;20385;-66
2023/11/28 09:21:39;;;;;;;7.20;1.60;;;2.40;1.00;;;;;;5054041;28;20898;-66
2023/11/28 09:24:07;;;;;;;4.50;0.93;;;2.60;1.00;;;;;;5051923;28;20414;-66
2023/11/28 09:26:33;;;;;;;3.90;0.90;;;2.60;1.00;;;;;;5052948;28;20385;-66
2023/11/28 09:29:01;;;;;;;5.37;0.43;;;2.70;99.90;;;;;;5052783;28;20831;-66
2023/11/28 09:31:28;;;;;;;3.22;0.47;;;2.70;99.90;;;;;;5051158;28;20381;-66
2023/11/28 09:33:57;;;;;;;4.10;0.60;;;2.50;99.90;;;;;;5052824;28;20418;-66
2023/11/28 09:36:23;;;;;;;3.42;0.63;;;2.60;99.90;;;;;;5035149;28;20467;-66
2023/11/28 09:38:49;;;;;;;4.20;0.98;;;2.70;99.90;;;;;;5052624;28;20451;-66
2023/11/28 09:41:22;;;;;;;3.80;0.90;;;2.70;99.90;;;;;;5052860;28;20412;-66
2023/11/28 09:43:49;;;;;;;4.35;0.75;;;2.80;99.90;;;;;;5052854;28;20381;-65
2023/11/28 09:46:16;;;;;;;3.40;0.53;;;2.70;99.90;;;;;;5052483;28;20414;-65
2023/11/28 09:48:45;;;;;;;3.47;0.60;;;2.60;99.90;;;;;;5052531;28;20400;-65
2023/11/28 09:51:11;;;;;;;3.40;0.60;;;2.50;99.90;;;;;;5053253;28;20547;-66
2023/11/28 09:53:40;;;;;;;3.90;0.50;;;2.60;1.00;;;;;;5052085;28;20467;-65
2023/11/28 09:56:07;;;;;;;3.50;0.50;;;2.70;99.90;;;;;;5052441;28;20401;-65
2023/11/28 09:58:35;;;;;;;4.50;0.90;;;2.70;99.90;;;;;;5052462;28;20906;-66
2023/11/28 10:01:06;;;;;;;4.60;1.30;;;2.70;99.90;;;;;;5050440;28;20401;-65
2023/11/28 10:03:34;;;;;;;4.10;0.80;;;2.70;99.90;;;;;;5052118;28;20435;-65
2023/11/28 10:06:01;;;;;;;3.60;0.80;;;2.90;99.90;;;;;;5052224;28;20393;-66
2023/11/28 10:08:27;;;;;;;4.20;0.67;;;2.90;99.90;;;;;;5052132;28;20393;-65
2023/11/28 10:10:56;;;;;;;4.22;0.57;;;2.70;99.90;;;;;;5052429;28;20798;-65
2023/11/28 10:13:22;;;;;;;4.00;0.90;;;2.70;99.90;;;;;;5051869;28;20954;-66
2023/11/28 10:15:54;;;;;;;3.40;0.75;;;2.60;99.90;;;;;;5050839;28;20393;-66
2023/11/28 10:18:20;;;;;;;4.10;1.00;;;2.60;99.90;;;;;;5050756;28;20696;-66
2023/11/28 10:20:46;;;;;;;4.30;0.80;;;2.60;99.90;;;;;;5051663;28;20397;-66
2023/11/28 10:23:15;;;;;;;3.80;0.90;;;2.70;99.90;;;;;;5052297;28;20421;-66
2023/11/28 10:25:40;;;;;;;4.40;1.10;;;2.70;99.90;;;;;;5050573;28;20405;-66
2023/11/28 10:28:08;;;;;;;3.80;0.90;;;2.70;95.30;;;;;;5051539;28;20932;-66
2023/11/28 10:30:37;;;;;;;3.90;0.80;;;2.50;99.90;;;;;;5051373;28;20878;-65
2023/11/28 10:33:02;;;;;;;3.72;0.60;;;2.40;99.90;;;;;;5051519;28;20480;-65
2023/11/28 10:35:44;;;;;;;3.78;0.70;;;2.50;99.90;;;;;;5051110;28;20408;-65
2023/11/28 10:38:17;;;;;;;6.20;1.42;;;2.50;55.60;;;;;;5051846;28;20887;-65
2023/11/28 10:40:55;;;;;;;4.40;1.50;;;2.70;98.80;;;;;;5051947;28;20436;-65
2023/11/28 10:43:21;;;;;;;3.63;0.60;;;2.90;1.00;;;;;;5049927;28;20390;-65
2023/11/28 10:45:46;;;;;;;4.20;1.10;;;2.70;1.00;;;;;;5051209;28;20459;-66
2023/11/28 10:48:13;;;;;;;3.80;0.90;;;2.80;1.00;;;;;;5051737;28;20790;-66
2023/11/28 10:50:40;;;;;;;3.90;1.15;;;2.90;1.00;;;;;;5051393;28;20442;-66
2023/11/28 10:53:10;;;;;;;4.47;1.08;;;3.00;1.00;;;;;;5050998;28;20435;-66
2023/11/28 10:55:40;;;;;;;4.90;1.50;;;2.90;1.00;;;;;;5049161;28;20413;-65
2023/11/28 10:58:12;;;;;;;4.20;1.20;;;2.90;1.00;;;;;;5050960;28;20405;-66
2023/11/28 11:00:38;;;;;;;4.38;1.30;;;2.80;1.00;;;;;;5051313;28;20400;-66
2023/11/28 11:03:04;;;;;;;5.20;1.27;;;2.70;1.00;;;;;;5050958;28;20386;-66
2023/11/28 11:05:31;;;;;;;4.30;1.10;;;2.60;1.00;;;;;;5051189;28;20389;-66
2023/11/28 11:07:58;;;;;;;4.70;1.30;;;2.50;1.00;;;;;;5050777;28;20539;-66
2023/11/28 11:10:24;;;;;;;4.73;1.03;;;2.60;1.00;;;;;;5049435;28;20412;-65
2023/11/28 11:13:08;;;;;;;5.70;1.20;;;2.50;1.00;;;;;;5050353;28;20404;-65
2023/11/28 11:15:48;;;;;;;4.27;1.40;;;2.40;1.00;;;;;;5050676;28;20386;-66
2023/11/28 11:18:43;;;;;;;4.60;1.63;;;2.60;1.00;;;;;;5051260;28;20393;-66
2023/11/28 11:21:36;;;;;;;7.35;1.58;;;2.80;1.00;;;;;;5050246;28;20388;-66
2023/11/28 11:24:02;;;;;;;5.47;1.27;;;2.80;1.00;;;;;;5050198;28;20448;-66
2023/11/28 11:26:39;;;;;;;3.95;1.20;;;2.80;1.00;;;;;;5050253;28;20443;-65
2023/11/28 11:29:26;;;;;;;3.70;0.90;;;2.50;1.00;;;;;;5050120;28;20405;-66
2023/11/28 11:31:55;;;;;;;3.80;1.10;;;2.40;1.00;;;;;;5050318;28;20704;-65
2023/11/28 11:34:43;;;;;;;4.10;1.08;;;2.50;1.00;;;;;;5048771;28;20768;-65
2023/11/28 11:37:13;;;;;;;5.83;1.57;;;2.50;1.00;;;;;;5050155;28;20748;-66
2023/11/28 11:39:49;;;;;;;6.83;3.10;;;2.50;1.00;;;;;;5050437;28;20389;-66
2023/11/28 11:42:20;;;;;;;7.95;2.88;;;2.70;1.00;;;;;;5050334;28;20755;-66
2023/11/28 11:44:50;;;;;;;4.75;1.30;;;2.70;1.00;;;;;;5050053;28;20400;-66
2023/11/28 11:47:20;;;;;;;5.90;1.50;;;2.60;1.00;;;;;;5049939;28;20385;-65
2023/11/28 11:49:48;;;;;;;9.48;2.40;;;2.80;1.00;;;;;;5049824;28;20473;-66
2023/11/28 11:52:15;;;;;;;4.65;1.45;;;2.70;1.00;;;;;;5050219;28;20400;-65
2023/11/28 11:54:42;;;;;;;7.07;1.83;;;2.50;1.00;;;;;;5050122;28;20456;-65
2023/11/28 11:57:09;;;;;;;5.03;1.20;;;2.40;1.00;;;;;;5048847;28;20415;-65
2023/11/28 11:59:35;;;;;;;6.33;2.43;;;2.50;1.00;;;;;;5049544;28;20471;-65
2023/11/28 12:02:01;;;;;;;5.28;2.10;;;2.60;1.00;;;;;;5049685;28;20489;-65
2023/11/28 12:04:28;;;;;;;8.05;2.45;;;2.70;1.00;;;;;;5049240;28;20946;-66
2023/11/28 12:07:04;;;;;;;10.87;2.60;;;3.00;1.00;;;;;;5049787;28;20399;-66
2023/11/28 12:09:30;;;;;;;6.33;2.27;;;2.80;1.00;;;;;;5049389;28;20386;-66
2023/11/28 12:11:56;;;;;;;4.72;1.48;;;2.60;1.00;;;;;;5047865;28;20401;-66
2023/11/28 12:14:22;;;;;;;5.43;2.30;;;2.70;1.00;;;;;;5049423;28;20418;-66
2023/11/28 12:16:47;;;;;;;6.10;1.83;;;2.60;1.00;;;;;;5041415;28;20899;-65
2023/11/28 12:19:15;;;;;;;7.95;3.03;;;2.30;1.00;;;;;;5048657;28;20386;-65
2023/11/28 12:21:40;;;;;;;7.47;2.65;;;2.40;1.00;;;;;;5049549;28;20483;-66
2023/11/28 12:24:07;;;;;;;6.25;2.83;;;2.50;1.00;;;;;;5049223;28;20424;-66
2023/11/28 12:26:34;;;;;;;11.73;3.05;;;2.40;1.00;;;;;;5049290;28;20888;-66
2023/11/28 12:29:00;;;;;;;9.80;2.40;;;2.50;1.00;;;;;;5049320;28;20413;-66
2023/11/28 12:31:27;;;;;;;6.72;1.77;;;2.40;1.00;;;;;;5047765;28;20404;-66
2023/11/28 12:33:52;;;;;;;5.57;1.48;;;2.50;1.00;;;;;;5048436;28;20440;-65
2023/11/28 12:36:25;;;;;;;5.10;1.55;;;2.40;1.00;;;;;;5048824;28;20419;-65
2023/11/28 12:38:52;;;;;;;5.03;1.90;;;2.20;1.00;;;;;;5048534;28;20385;-65
2023/11/28 12:41:18;;;;;;;7.13;2.70;;;2.30;1.00;;;;;;5049184;28;20480;-65
2023/11/28 12:43:44;;;;;;;6.43;1.98;;;2.30;1.00;;;;;;5049637;28;20887;-65
2023/11/28 12:46:09;;;;;;;5.57;1.80;;;2.30;1.00;;;;;;5049073;28;20405;-65
2023/11/28 12:48:35;;;;;;;9.30;3.40;;;2.30;1.00;;;;;;5049535;28;20406;-65
2023/11/28 12:51:02;;;;;;;7.13;3.00;;;2.40;1.00;;;;;;5047441;28;20831;-65
2023/11/28 12:53:28;;;;;;;6.10;2.65;;;2.60;1.00;;;;;;5049586;28;20813;-69
2023/11/28 12:55:56;;;;;;;5.77;1.80;;;2.50;1.00;;;;;;5048869;28;20443;-64
2023/11/28 12:58:22;;;;;;;5.10;2.10;;;2.50;1.00;;;;;;5048363;28;20385;-65
2023/11/28 13:00:48;;;;;;;7.00;2.80;;;2.40;1.00;;;;;;5047036;28;20443;-66